createdAt,value
2022-12-05T00:00:56.833Z,80.85
2022-12-05T00:03:24.184Z,80.47
2022-12-05T00:05:51.577Z,80.73
2022-12-05T00:08:19.373Z,81.59
2022-12-05T00:10:47.206Z,81.01
2022-12-05T00:13:15.941Z,80.86
2022-12-05T00:15:45.195Z,81.05
2022-12-05T00:18:12.906Z,80.72
2022-12-05T00:20:47.858Z,80.90
2022-12-05T00:23:15.385Z,80.71
2022-12-05T00:25:45.011Z,82.63
2022-12-05T00:28:12.664Z,82.07
2022-12-05T00:30:40.682Z,82.01
2022-12-05T00:33:08.744Z,82.65
2022-12-05T00:35:36.379Z,82.49
2022-12-05T00:38:03.774Z,81.08
2022-12-05T00:40:31.150Z,81.38
2022-12-05T00:42:58.607Z,82.66
2022-12-05T00:45:25.967Z,83.30
2022-12-05T00:47:53.280Z,82.65
2022-12-05T00:50:20.894Z,84.22
2022-12-05T00:52:48.227Z,84.46
2022-12-05T00:55:15.593Z,84.42
2022-12-05T00:57:42.986Z,83.30
2022-12-05T01:00:10.566Z,82.79
2022-12-05T01:02:38.071Z,84.08
2022-12-05T01:05:05.649Z,84.68
2022-12-05T01:07:33.325Z,86.07
2022-12-05T01:10:00.693Z,85.85
2022-12-05T01:12:28.290Z,84.94
2022-12-05T01:14:55.778Z,84.58
2022-12-05T01:17:23.104Z,85.01
2022-12-05T01:19:50.488Z,87.34
2022-12-05T01:22:18.830Z,86.67
2022-12-05T01:24:46.162Z,86.05
2022-12-05T01:27:13.581Z,85.85
2022-12-05T01:29:40.967Z,85.48
2022-12-05T01:32:08.480Z,86.60
2022-12-05T01:34:35.989Z,86.42
2022-12-05T01:37:03.441Z,87.93
2022-12-05T01:39:30.943Z,88.34
2022-12-05T01:41:58.258Z,89.42
2022-12-05T01:44:25.547Z,88.94
2022-12-05T01:46:53.116Z,88.87
2022-12-05T01:49:24.458Z,90.01
2022-12-05T01:51:56.677Z,89.15
2022-12-05T01:54:24.454Z,89.36
2022-12-05T01:57:01.798Z,89.46
2022-12-05T01:59:32.414Z,89.48
2022-12-05T02:01:59.904Z,90.65
2022-12-05T02:04:27.918Z,89.38
2022-12-05T02:06:55.275Z,89.79
2022-12-05T02:09:23.102Z,89.86
2022-12-05T02:11:54.239Z,90.44
2022-12-05T02:14:44.244Z,90.82
2022-12-05T02:17:34.982Z,90.17
2022-12-05T02:20:14.767Z,90.03
2022-12-05T02:23:01.178Z,90.42
2022-12-05T02:25:44.390Z,89.75
2022-12-05T02:28:30.384Z,89.70
2022-12-05T02:30:58.367Z,89.08
2022-12-05T02:33:40.919Z,89.19
2022-12-05T02:36:12.175Z,89.03
2022-12-05T02:38:41.694Z,88.49
2022-12-05T02:41:11.924Z,87.82
2022-12-05T02:43:41.173Z,88.09
2022-12-05T02:46:13.213Z,89.13
2022-12-05T02:48:40.657Z,89.22
2022-12-05T02:51:07.942Z,88.77
2022-12-05T02:53:35.313Z,88.79
2022-12-05T02:56:02.732Z,88.60
2022-12-05T02:58:38.607Z,89.63
2022-12-05T03:01:06.293Z,90.42
2022-12-05T03:03:33.794Z,90.19
2022-12-05T03:06:01.346Z,89.70
2022-12-05T03:08:30.130Z,90.15
2022-12-05T03:10:57.451Z,90.38
2022-12-05T03:13:26.889Z,90.79
2022-12-05T03:15:55.709Z,90.12
2022-12-05T03:18:27.301Z,89.56
2022-12-05T03:20:59.527Z,89.35
2022-12-05T03:23:30.023Z,89.61
2022-12-05T03:26:12.137Z,89.77
2022-12-05T03:29:18.474Z,90.14
2022-12-05T03:31:51.965Z,89.96
2022-12-05T03:34:39.794Z,89.86
2022-12-05T03:37:09.848Z,90.33
2022-12-05T03:39:37.410Z,90.73
2022-12-05T03:42:14.028Z,90.65
2022-12-05T03:44:47.916Z,90.14
2022-12-05T03:47:26.093Z,89.65
2022-12-05T03:49:56.318Z,88.99
2022-12-05T03:52:25.519Z,89.17
2022-12-05T03:54:53.864Z,89.73
2022-12-05T03:57:36.762Z,90.82
2022-12-05T04:00:18.979Z,90.62
2022-12-05T04:02:54.686Z,91.72
2022-12-05T04:05:27.023Z,92.04
2022-12-05T04:07:56.723Z,90.77
2022-12-05T04:10:26.297Z,90.09
2022-12-05T04:12:54.319Z,90.23
2022-12-05T04:15:23.609Z,90.74
2022-12-05T04:17:54.095Z,91.36
2022-12-05T04:20:41.744Z,90.93
2022-12-05T04:23:10.403Z,90.64
2022-12-05T04:25:40.027Z,90.40
2022-12-05T04:28:26.385Z,90.53
2022-12-05T04:30:57.400Z,90.73
2022-12-05T04:33:42.106Z,90.12
2022-12-05T04:36:19.211Z,90.01
2022-12-05T04:39:02.050Z,91.87
2022-12-05T04:41:49.697Z,91.48
2022-12-05T04:44:17.735Z,90.79
2022-12-05T04:46:45.079Z,90.58
2022-12-05T04:49:13.684Z,91.19
2022-12-05T04:51:40.992Z,90.89
2022-12-05T04:54:18.436Z,90.42
2022-12-05T04:56:46.007Z,89.94
2022-12-05T04:59:13.286Z,90.13
2022-12-05T05:01:51.599Z,90.24
2022-12-05T05:04:23.793Z,90.81
2022-12-05T05:06:51.561Z,90.38
2022-12-05T05:09:18.907Z,90.37
2022-12-05T05:11:46.197Z,90.77
2022-12-05T05:14:13.709Z,91.29
2022-12-05T05:16:41.449Z,92.66
2022-12-05T05:19:10.581Z,92.10
2022-12-05T05:21:38.687Z,92.08
2022-12-05T05:24:06.370Z,91.51
2022-12-05T05:26:35.521Z,91.77
2022-12-05T05:29:02.917Z,92.19
2022-12-05T05:31:30.484Z,91.98
2022-12-05T05:33:57.899Z,91.95
2022-12-05T05:36:25.931Z,90.86
2022-12-05T05:38:54.179Z,90.46
2022-12-05T05:41:22.619Z,91.28
2022-12-05T05:43:50.116Z,90.71
2022-12-05T05:46:18.363Z,90.45
2022-12-05T05:48:45.699Z,89.63
2022-12-05T05:51:13.422Z,90.00
2022-12-05T14:42:41.901Z,53.00
2022-12-05T14:45:18.462Z,52.97
2022-12-05T14:47:52.803Z,52.66
2022-12-05T14:50:32.433Z,52.92
2022-12-05T14:53:15.350Z,52.67
2022-12-05T14:55:46.578Z,52.72
2022-12-05T14:58:18.531Z,52.63
2022-12-05T15:00:48.263Z,52.93
2022-12-05T15:03:21.516Z,52.88
2022-12-05T15:05:49.488Z,53.11
2022-12-05T15:08:16.961Z,52.47
2022-12-05T15:10:45.811Z,52.29
2022-12-05T15:13:20.785Z,52.69
2022-12-05T15:16:08.466Z,53.42
2022-12-05T15:18:40.411Z,53.30
2022-12-05T15:21:26.141Z,53.37
2022-12-05T15:23:54.298Z,53.35
2022-12-05T15:26:47.200Z,53.29
2022-12-05T15:29:23.468Z,53.66
2022-12-05T15:32:14.117Z,54.20
2022-12-05T15:34:47.683Z,54.42
2022-12-05T15:37:18.504Z,54.14
2022-12-05T15:40:01.842Z,54.24
2022-12-05T15:42:50.247Z,54.31
2022-12-05T15:45:23.660Z,54.17
2022-12-05T15:47:55.103Z,53.87
2022-12-05T15:50:27.635Z,53.64
2022-12-05T15:53:05.797Z,53.74
2022-12-05T15:55:35.676Z,53.89
2022-12-05T15:58:13.449Z,54.02
2022-12-05T16:00:41.963Z,53.77
2022-12-05T16:03:18.174Z,53.95
2022-12-05T16:05:55.889Z,53.78
2022-12-05T16:08:24.634Z,54.27
2022-12-05T16:10:52.321Z,53.72
2022-12-05T16:13:20.780Z,53.56
2022-12-05T16:15:52.766Z,53.95
2022-12-05T16:18:27.829Z,54.27
2022-12-05T16:20:55.198Z,53.90
2022-12-05T16:23:25.679Z,54.08
2022-12-05T16:25:53.452Z,54.36
2022-12-05T16:28:21.773Z,54.89
2022-12-05T16:31:07.634Z,55.04
2022-12-05T16:33:40.195Z,54.88
2022-12-05T16:36:11.250Z,55.12
2022-12-05T16:38:41.041Z,55.06
2022-12-05T16:41:09.364Z,55.83
2022-12-05T16:43:36.856Z,55.14
2022-12-05T16:46:13.690Z,55.43
2022-12-05T16:48:42.214Z,55.01
2022-12-05T16:51:13.709Z,55.24
2022-12-05T16:53:41.795Z,55.77
2022-12-05T16:56:29.913Z,55.56
2022-12-05T16:58:57.657Z,55.99
2022-12-05T17:01:26.020Z,56.03
2022-12-05T17:03:54.096Z,56.33
2022-12-05T17:06:23.538Z,56.11
2022-12-05T17:08:51.560Z,56.44
2022-12-05T17:11:23.109Z,56.51
2022-12-05T17:13:50.994Z,56.54
2022-12-05T17:16:18.509Z,57.01
2022-12-05T17:18:46.100Z,56.29
2022-12-05T17:21:23.276Z,56.87
2022-12-05T17:23:51.065Z,56.80
2022-12-05T17:26:19.451Z,56.64
2022-12-05T17:28:47.713Z,56.90
2022-12-05T17:31:17.514Z,57.05
2022-12-05T17:33:46.147Z,57.12
2022-12-05T17:36:20.716Z,56.99
2022-12-05T17:38:48.453Z,56.82
2022-12-05T17:41:23.284Z,56.94
2022-12-05T17:43:52.107Z,56.88
2022-12-05T17:46:23.358Z,56.53
2022-12-05T17:48:51.190Z,56.70
2022-12-05T17:51:19.346Z,57.25
2022-12-05T17:53:47.629Z,56.89
2022-12-05T17:56:15.433Z,56.84
2022-12-05T17:58:42.957Z,57.09
2022-12-05T18:01:14.696Z,56.76
2022-12-05T18:03:42.708Z,56.59
2022-12-05T18:06:10.327Z,57.09
2022-12-05T18:08:42.215Z,57.27
2022-12-05T18:11:09.919Z,57.01
2022-12-05T18:13:38.806Z,56.83
2022-12-05T18:16:06.508Z,56.96
2022-12-05T18:18:34.744Z,57.00
2022-12-05T18:21:06.263Z,56.83
2022-12-05T18:23:34.525Z,56.46
2022-12-05T18:26:01.999Z,57.01
2022-12-05T18:28:29.725Z,57.11
2022-12-05T18:31:06.948Z,57.31
2022-12-05T18:33:34.842Z,57.07
2022-12-05T18:36:06.330Z,57.57
2022-12-05T18:38:34.110Z,57.18
2022-12-05T18:41:01.881Z,57.59
2022-12-05T18:43:30.502Z,57.17
2022-12-05T18:45:58.836Z,57.29
2022-12-05T18:48:46.094Z,57.21
2022-12-05T18:51:21.516Z,57.25
2022-12-05T18:53:53.389Z,57.21
2022-12-05T18:56:28.328Z,57.48
2022-12-05T18:58:56.542Z,57.66
2022-12-05T19:01:24.128Z,57.80
2022-12-05T19:03:51.748Z,58.14
2022-12-05T19:06:20.292Z,58.28
2022-12-05T19:08:47.782Z,58.04
2022-12-05T19:11:16.771Z,58.10
2022-12-05T19:13:44.308Z,58.24
2022-12-05T19:16:14.610Z,57.87
2022-12-05T19:18:42.138Z,58.22
2022-12-05T19:21:09.520Z,57.92
2022-12-05T19:23:37.093Z,58.42
2022-12-05T19:26:05.469Z,58.51
2022-12-05T19:28:33.615Z,57.74
2022-12-05T19:31:03.995Z,57.86
2022-12-05T19:33:35.681Z,57.95
2022-12-05T19:36:13.352Z,58.35
2022-12-05T19:38:41.656Z,57.94
2022-12-05T19:41:09.764Z,58.13
2022-12-05T19:43:37.391Z,57.87
2022-12-05T19:46:05.563Z,57.64
2022-12-05T19:48:33.135Z,58.08
2022-12-05T19:51:00.724Z,57.64
2022-12-05T19:53:28.806Z,57.49
2022-12-05T19:56:02.878Z,57.46
2022-12-05T19:58:35.289Z,57.78
2022-12-05T20:01:13.376Z,58.78
2022-12-05T20:03:41.145Z,58.42
2022-12-05T20:06:10.566Z,57.87
2022-12-05T20:08:41.164Z,57.63
2022-12-05T20:11:09.582Z,57.40
2022-12-05T20:13:52.520Z,57.63
2022-12-05T20:16:21.538Z,57.79
2022-12-05T20:18:49.175Z,57.66
2022-12-05T20:21:17.260Z,57.69
2022-12-05T20:23:44.665Z,57.32
2022-12-05T20:26:13.099Z,56.89
2022-12-05T20:28:40.507Z,57.31
2022-12-05T20:31:12.473Z,57.15
2022-12-05T20:33:40.134Z,57.21
2022-12-05T20:36:08.723Z,56.85
2022-12-05T20:38:36.778Z,57.21
2022-12-05T20:41:05.106Z,57.62
2022-12-05T20:43:32.800Z,57.70
2022-12-05T20:46:07.679Z,57.70
2022-12-05T20:48:35.949Z,57.52
2022-12-05T20:51:07.405Z,57.45
2022-12-05T20:53:35.830Z,57.60
2022-12-05T20:56:08.477Z,57.33
2022-12-05T20:58:36.241Z,57.52
2022-12-05T21:01:04.804Z,57.81
2022-12-05T21:03:32.497Z,57.31
2022-12-05T21:05:59.928Z,57.64
2022-12-05T21:08:27.858Z,57.65
2022-12-05T21:10:55.514Z,57.75
2022-12-05T21:13:23.033Z,58.27
2022-12-05T21:15:51.086Z,58.35
2022-12-05T21:18:18.782Z,58.85
2022-12-05T21:20:57.670Z,58.83
2022-12-05T21:23:25.211Z,58.79
2022-12-05T21:25:52.622Z,59.58
2022-12-05T21:28:20.166Z,59.39
2022-12-05T21:30:47.640Z,59.75
2022-12-05T21:33:15.242Z,59.59
2022-12-05T21:35:42.678Z,59.87
2022-12-05T21:38:10.221Z,59.62
2022-12-05T21:40:37.661Z,59.53
2022-12-05T21:43:05.205Z,59.49
2022-12-05T21:45:32.781Z,59.33
2022-12-05T21:48:00.236Z,59.63
2022-12-05T21:50:27.704Z,59.91
2022-12-05T21:52:56.070Z,60.07
2022-12-05T21:55:23.516Z,59.80
2022-12-05T21:57:51.229Z,59.88
2022-12-05T22:00:19.070Z,59.67
2022-12-05T22:02:46.819Z,59.59
2022-12-05T22:05:14.231Z,60.29
2022-12-05T22:07:41.721Z,60.42
2022-12-05T22:10:10.214Z,60.44
2022-12-05T22:12:39.947Z,59.87
2022-12-05T22:15:07.916Z,60.23
2022-12-05T22:17:35.806Z,60.19
2022-12-05T22:20:03.820Z,60.72
2022-12-05T22:22:31.446Z,60.51
2022-12-05T22:24:59.311Z,60.53
2022-12-05T22:27:27.544Z,61.28
2022-12-05T22:29:55.212Z,60.83
2022-12-05T22:32:22.657Z,60.92
2022-12-05T22:34:50.354Z,60.69
2022-12-05T22:37:17.677Z,60.92
2022-12-05T22:39:46.362Z,61.66
2022-12-05T22:42:13.722Z,62.04
2022-12-05T22:44:41.089Z,62.49
2022-12-05T22:47:10.938Z,61.95
2022-12-05T22:49:39.194Z,62.12
2022-12-05T22:52:06.716Z,62.08
2022-12-05T22:54:34.071Z,61.88
2022-12-05T22:57:01.538Z,63.21
2022-12-05T22:59:29.020Z,62.89
